Time;durP1;ratioP1;P1;durP2;ratioP2;P2;SDS_P1;SDS_P2;PMS_P1;PMS_P2;Temp;Humidity;BMP_temperature;BMP_pressure;BME280_temperature;BME280_humidity;BME280_pressure;Samples;Min_cycle;Max_cycle;Signal;HPM_P1;HPM_P2
2023/01/14 00:02:19;;;;;;;22.20;13.10;;;6.60;99.90;;;;;;6278152;28;20839;-66
2023/01/14 00:05:22;;;;;;;13.70;12.23;;;6.50;99.90;;;;;;6277994;28;20524;-65
2023/01/14 00:08:26;;;;;;;16.73;13.17;;;6.50;99.90;;;;;;6277505;28;20478;-65
2023/01/14 00:11:50;;;;;;;16.87;13.57;;;6.60;99.90;;;;;;6277555;28;20466;-65
2023/01/14 00:14:53;;;;;;;21.43;15.90;;;6.50;99.90;;;;;;6277575;28;20486;-65
2023/01/14 00:17:57;;;;;;;13.27;11.47;;;6.40;99.90;;;;;;6277491;28;20974;-65
2023/01/14 00:21:02;;;;;;;21.83;13.90;;;6.40;99.90;;;;;;6277009;28;20519;-65
2023/01/14 00:24:06;;;;;;;16.87;11.90;;;6.30;99.90;;;;;;6277382;28;20539;-65
2023/01/14 00:27:12;;;;;;;13.30;11.57;;;6.20;99.90;;;;;;6277554;28;20484;-65
2023/01/14 00:30:16;;;;;;;15.17;12.40;;;6.20;99.90;;;;;;6253580;28;20808;-65
2023/01/14 00:33:19;;;;;;;13.03;11.10;;;6.20;99.90;;;;;;6255337;28;20467;-65
2023/01/14 00:36:24;;;;;;;14.77;11.00;;;6.20;99.90;;;;;;6277124;28;20501;-66
2023/01/14 00:39:27;;;;;;;11.70;10.10;;;6.10;99.90;;;;;;6276638;28;20497;-65
2023/01/14 00:42:32;;;;;;;11.53;10.30;;;6.10;99.90;;;;;;6277434;28;20481;-65
2023/01/14 00:45:35;;;;;;;11.10;9.70;;;6.00;99.90;;;;;;6276574;28;20481;-66
2023/01/14 00:48:39;;;;;;;12.10;10.90;;;5.90;99.90;;;;;;6276620;28;20535;-65
2023/01/14 00:51:42;;;;;;;16.90;11.27;;;5.90;99.90;;;;;;6279039;28;20488;-65
2023/01/14 00:54:45;;;;;;;14.00;10.90;;;5.90;99.90;;;;;;6270733;28;20498;-65
2023/01/14 00:57:50;;;;;;;15.20;9.63;;;5.90;99.90;;;;;;6278385;28;20540;-65
2023/01/14 01:00:54;;;;;;;12.00;10.10;;;6.00;99.90;;;;;;6277720;28;20466;-65
2023/01/14 01:03:59;;;;;;;13.00;10.13;;;6.00;99.90;;;;;;6276585;28;20478;-66
2023/01/14 01:07:02;;;;;;;11.50;10.30;;;6.10;99.90;;;;;;6276304;28;20811;-66
2023/01/14 01:10:06;;;;;;;12.40;10.23;;;6.10;99.90;;;;;;6276266;28;20543;-65
2023/01/14 01:13:11;;;;;;;12.97;10.57;;;6.10;99.90;;;;;;6276034;28;20484;-65
2023/01/14 01:16:17;;;;;;;14.30;10.53;;;6.20;99.90;;;;;;6275993;28;20624;-65
2023/01/14 01:19:20;;;;;;;11.93;9.30;;;6.20;99.90;;;;;;6275969;28;20470;-65
2023/01/14 01:22:23;;;;;;;9.47;8.50;;;6.20;99.90;;;;;;6276087;28;21139;-65
2023/01/14 01:25:27;;;;;;;10.00;8.80;;;6.20;99.90;;;;;;6280729;28;20472;-65
2023/01/14 01:28:33;;;;;;;8.87;7.97;;;6.20;99.90;;;;;;6284662;28;20946;-65
2023/01/14 01:31:36;;;;;;;10.87;8.60;;;6.20;99.90;;;;;;6275599;28;20474;-65
2023/01/14 01:34:40;;;;;;;12.10;8.57;;;6.20;99.90;;;;;;6275498;28;20478;-65
2023/01/14 01:37:43;;;;;;;10.53;9.03;;;6.20;99.90;;;;;;6275110;28;20494;-65
2023/01/14 01:40:47;;;;;;;9.63;8.70;;;6.20;99.90;;;;;;6275690;28;20954;-65
2023/01/14 01:44:00;;;;;;;10.40;8.43;;;6.20;99.90;;;;;;6274852;28;20478;-65
2023/01/14 01:47:03;;;;;;;10.60;7.50;;;6.20;99.90;;;;;;6275226;28;20442;-65
2023/01/14 01:50:08;;;;;;;8.50;7.70;;;6.20;99.90;;;;;;6275071;28;20969;-65
2023/01/14 01:53:12;;;;;;;10.30;9.17;;;6.20;99.90;;;;;;6275597;28;20922;-65
2023/01/14 01:56:20;;;;;;;9.37;8.40;;;6.20;99.90;;;;;;6266140;28;20803;-65
2023/01/14 01:59:29;;;;;;;8.17;7.37;;;6.20;99.90;;;;;;6273710;28;20474;-65
2023/01/14 02:02:32;;;;;;;8.73;7.23;;;6.20;99.90;;;;;;6250361;28;20795;-65
2023/01/14 02:05:36;;;;;;;11.70;8.83;;;6.20;99.90;;;;;;6250699;28;20487;-64
2023/01/14 02:08:43;;;;;;;11.93;7.90;;;6.20;99.90;;;;;;6249944;28;20923;-64
2023/01/14 02:12:18;;;;;;;7.70;6.40;;;6.20;99.90;;;;;;6250663;28;20467;-65
2023/01/14 02:15:35;;;;;;;8.80;7.80;;;6.20;99.90;;;;;;6250353;28;20471;-64
2023/01/14 02:18:49;;;;;;;9.27;8.27;;;6.30;99.90;;;;;;6250260;28;20502;-65
2023/01/14 02:22:14;;;;;;;9.23;7.37;;;6.20;99.90;;;;;;6249507;28;20467;-64
2023/01/14 02:25:43;;;;;;;9.37;8.07;;;6.20;99.90;;;;;;6257171;28;20476;-64
2023/01/14 02:29:05;;;;;;;10.43;8.03;;;6.20;99.90;;;;;;6274646;28;20993;-64
2023/01/14 02:32:18;;;;;;;11.07;7.30;;;6.10;99.90;;;;;;6273984;28;20531;-64
2023/01/14 02:35:31;;;;;;;9.03;8.00;;;6.10;99.90;;;;;;6274325;28;20467;-64
2023/01/14 02:38:43;;;;;;;7.80;6.67;;;6.00;99.90;;;;;;6273968;28;20496;-64
2023/01/14 02:45:20;;;;;;;9.30;6.97;;;6.00;99.90;;;;;;6273994;28;20807;-64
2023/01/14 02:48:27;;;;;;;7.40;6.20;;;6.00;99.90;;;;;;6273551;28;20488;-64
2023/01/14 02:51:31;;;;;;;9.43;7.10;;;5.90;99.90;;;;;;6274273;28;20478;-64
2023/01/14 02:54:35;;;;;;;10.40;7.47;;;5.90;99.90;;;;;;6274243;28;20479;-65
2023/01/14 02:57:48;;;;;;;8.43;7.00;;;5.80;99.90;;;;;;6273669;28;20474;-65
2023/01/14 03:00:59;;;;;;;8.50;7.00;;;5.80;99.90;;;;;;6274255;28;20466;-65
2023/01/14 03:04:38;;;;;;;8.57;7.50;;;5.70;99.90;;;;;;6274600;28;20484;-65
2023/01/14 03:07:46;;;;;;;8.07;7.27;;;5.70;99.90;;;;;;6274397;28;20482;-65
2023/01/14 03:10:55;;;;;;;8.97;8.03;;;5.70;99.90;;;;;;6277222;28;20497;-65
2023/01/14 03:14:04;;;;;;;16.57;7.30;;;5.60;99.90;;;;;;6278943;28;20486;-65
2023/01/14 03:17:13;;;;;;;9.10;7.50;;;5.60;99.90;;;;;;6278251;28;20466;-65
2023/01/14 03:20:23;;;;;;;10.30;7.37;;;5.60;99.90;;;;;;6278647;28;20899;-65
2023/01/14 03:23:29;;;;;;;11.43;7.87;;;5.50;99.90;;;;;;6278728;28;20478;-65
2023/01/14 03:26:36;;;;;;;9.47;7.53;;;5.60;99.90;;;;;;6282474;28;20932;-65
2023/01/14 03:29:43;;;;;;;8.03;7.00;;;5.50;99.90;;;;;;6280242;28;20474;-65
2023/01/14 03:32:51;;;;;;;7.70;6.63;;;5.50;99.90;;;;;;6279040;28;20481;-66
2023/01/14 03:35:58;;;;;;;6.77;6.07;;;5.60;99.90;;;;;;6278200;28;20980;-66
2023/01/14 03:39:05;;;;;;;8.37;6.80;;;5.60;99.90;;;;;;6277767;28;20467;-65
2023/01/14 03:42:19;;;;;;;6.43;5.83;;;5.60;99.90;;;;;;6278521;28;20549;-65
2023/01/14 03:45:27;;;;;;;7.70;6.17;;;5.50;99.90;;;;;;6277906;28;20577;-65
2023/01/14 03:48:30;;;;;;;7.30;6.20;;;5.40;99.90;;;;;;6277691;28;20954;-65
2023/01/14 03:51:43;;;;;;;8.37;7.43;;;5.40;99.90;;;;;;6277775;28;20950;-65
2023/01/14 03:54:51;;;;;;;8.57;6.90;;;5.30;99.90;;;;;;6277818;28;21088;-65
2023/01/14 03:57:57;;;;;;;8.13;5.90;;;5.30;99.90;;;;;;6277364;28;20796;-65
2023/01/14 04:01:09;;;;;;;8.10;6.90;;;5.20;99.90;;;;;;6255171;28;20464;-65
2023/01/14 04:04:13;;;;;;;10.47;6.23;;;5.20;99.90;;;;;;6252990;28;20475;-65
2023/01/14 04:07:18;;;;;;;7.30;5.87;;;5.10;99.90;;;;;;6252873;28;20819;-65
2023/01/14 04:10:21;;;;;;;7.93;6.30;;;5.10;99.90;;;;;;6252617;28;20493;-65
2023/01/14 04:16:45;;;;;;;7.63;6.43;;;5.10;99.90;;;;;;6252653;28;20468;-65
2023/01/14 04:19:49;;;;;;;7.30;6.47;;;5.20;99.90;;;;;;6252514;28;20474;-65
2023/01/14 04:22:53;;;;;;;7.97;6.47;;;5.20;99.90;;;;;;6251178;28;20471;-65
2023/01/14 04:25:58;;;;;;;6.23;5.27;;;5.20;99.90;;;;;;6253734;28;20474;-65
2023/01/14 04:29:01;;;;;;;8.67;5.33;;;5.10;99.90;;;;;;6258711;28;20509;-65
2023/01/14 04:32:05;;;;;;;11.33;5.60;;;5.10;99.90;;;;;;6268915;28;20438;-65
2023/01/14 04:35:09;;;;;;;5.90;5.17;;;5.10;99.90;;;;;;6277712;28;20529;-65
2023/01/14 04:38:14;;;;;;;6.03;5.50;;;5.10;99.90;;;;;;6276481;28;20486;-65
2023/01/14 04:44:34;;;;;;;5.40;4.90;;;5.10;99.90;;;;;;6261636;28;20475;-65
2023/01/14 04:47:38;;;;;;;9.63;5.90;;;5.10;99.90;;;;;;6266187;28;20802;-65
2023/01/14 04:50:44;;;;;;;6.70;5.60;;;5.00;99.90;;;;;;6264231;28;20471;-65
2023/01/14 04:53:49;;;;;;;6.10;5.00;;;5.00;99.90;;;;;;6269830;28;20549;-65
2023/01/14 04:56:52;;;;;;;10.27;5.10;;;4.90;99.90;;;;;;6264853;28;20489;-65
2023/01/14 04:59:55;;;;;;;7.70;4.97;;;4.90;99.90;;;;;;6261133;28;20478;-65
2023/01/14 05:02:58;;;;;;;10.70;6.50;;;5.00;99.90;;;;;;6254429;28;20474;-64
2023/01/14 05:06:02;;;;;;;6.80;6.03;;;5.00;99.90;;;;;;6264882;28;20613;-65
2023/01/14 05:09:07;;;;;;;10.30;7.70;;;5.00;99.90;;;;;;6261994;28;20480;-65
2023/01/14 05:12:10;;;;;;;7.00;6.30;;;4.90;99.90;;;;;;6263114;28;20568;-65
2023/01/14 05:15:14;;;;;;;7.87;6.50;;;4.80;99.90;;;;;;6264924;28;20471;-66
2023/01/14 05:18:18;;;;;;;6.40;5.60;;;4.80;99.90;;;;;;6262811;28;20485;-66
2023/01/14 05:21:22;;;;;;;6.07;4.87;;;4.60;99.90;;;;;;6266504;28;20963;-65
2023/01/14 05:24:27;;;;;;;6.77;4.90;;;4.60;99.90;;;;;;6267012;28;20473;-64
2023/01/14 05:27:30;;;;;;;7.43;5.70;;;4.60;99.90;;;;;;6267644;28;20463;-65
2023/01/14 05:30:34;;;;;;;8.30;6.37;;;4.60;99.90;;;;;;6265496;28;20986;-65
2023/01/14 05:33:38;;;;;;;6.97;5.70;;;4.60;99.90;;;;;;6261727;28;20459;-65
2023/01/14 05:36:41;;;;;;;7.43;5.87;;;4.60;99.90;;;;;;6261510;28;20479;-65
2023/01/14 05:39:46;;;;;;;8.20;6.53;;;4.50;99.90;;;;;;6261377;28;20814;-65
2023/01/14 05:46:14;;;;;;;8.03;6.40;;;4.30;99.90;;;;;;6262241;28;20468;-65
2023/01/14 05:49:18;;;;;;;6.03;5.43;;;4.20;99.90;;;;;;6261707;28;20489;-65
2023/01/14 05:52:23;;;;;;;6.00;5.17;;;4.10;99.90;;;;;;6263532;28;20471;-65
2023/01/14 05:55:28;;;;;;;11.27;7.13;;;4.10;99.90;;;;;;6261063;28;20958;-65
2023/01/14 05:58:31;;;;;;;9.27;7.50;;;4.10;99.90;;;;;;6260935;28;20795;-66
2023/01/14 06:08:16;;;;;;;6.03;5.37;;;3.80;99.90;;;;;;6260729;28;20458;-65
2023/01/14 06:11:22;;;;;;;6.07;4.60;;;3.90;99.90;;;;;;6263001;28;20758;-66
2023/01/14 06:14:25;;;;;;;5.80;5.27;;;3.90;99.90;;;;;;6260829;28;20486;-65
2023/01/14 06:17:34;;;;;;;5.23;4.50;;;3.90;99.90;;;;;;6265757;28;20466;-65
2023/01/14 06:20:38;;;;;;;6.37;4.83;;;3.90;99.90;;;;;;6260740;28;20459;-66
2023/01/14 06:23:42;;;;;;;5.70;5.20;;;3.90;99.90;;;;;;6263166;28;20491;-66
2023/01/14 06:26:47;;;;;;;5.87;5.37;;;3.80;99.90;;;;;;6265966;28;20990;-66
2023/01/14 06:29:51;;;;;;;6.07;4.67;;;3.70;99.90;;;;;;6263382;28;20612;-67
2023/01/14 06:32:55;;;;;;;10.20;4.33;;;3.70;99.90;;;;;;6260330;28;20475;-66
2023/01/14 06:35:58;;;;;;;5.30;4.77;;;3.70;99.90;;;;;;6262926;28;20467;-65
2023/01/14 06:39:02;;;;;;;5.40;4.90;;;3.80;99.90;;;;;;6263780;28;20462;-66
2023/01/14 06:42:06;;;;;;;5.53;5.03;;;3.70;99.90;;;;;;6260393;28;20471;-65
2023/01/14 06:45:11;;;;;;;5.43;5.03;;;3.60;99.90;;;;;;6266524;28;20519;-66
2023/01/14 06:48:15;;;;;;;6.47;5.30;;;3.60;99.90;;;;;;6269628;28;20479;-66
2023/01/14 06:51:20;;;;;;;4.73;4.27;;;3.50;99.90;;;;;;6271666;28;20537;-65
2023/01/14 06:54:24;;;;;;;7.07;5.20;;;3.50;99.90;;;;;;6269094;28;20471;-65
2023/01/14 06:57:29;;;;;;;6.83;4.90;;;3.50;99.90;;;;;;6270599;28;20914;-66
2023/01/14 07:00:34;;;;;;;6.20;5.40;;;3.50;99.90;;;;;;6269469;28;20814;-65
2023/01/14 07:03:39;;;;;;;6.13;5.20;;;3.60;99.90;;;;;;6269249;28;20848;-66
2023/01/14 07:06:43;;;;;;;6.93;4.50;;;3.60;99.90;;;;;;6270702;28;20971;-65
2023/01/14 07:09:47;;;;;;;9.87;5.70;;;3.50;99.90;;;;;;6268521;28;20467;-66
2023/01/14 07:12:53;;;;;;;5.77;5.17;;;3.50;99.90;;;;;;6263652;28;20955;-66
2023/01/14 07:15:57;;;;;;;7.40;6.20;;;3.50;99.90;;;;;;6269895;28;20469;-66
2023/01/14 07:19:00;;;;;;;8.90;6.40;;;3.50;99.90;;;;;;6270901;28;20579;-66
2023/01/14 07:22:04;;;;;;;5.90;5.30;;;3.60;99.90;;;;;;6270841;28;20467;-66
2023/01/14 07:25:08;;;;;;;5.67;5.17;;;3.60;99.90;;;;;;6276231;28;20985;-66
2023/01/14 07:28:13;;;;;;;5.97;5.33;;;3.70;99.90;;;;;;6270670;28;20549;-66
2023/01/14 07:31:17;;;;;;;6.97;5.80;;;3.70;99.90;;;;;;6270450;28;20508;-66
2023/01/14 07:34:20;;;;;;;6.57;5.90;;;3.80;99.90;;;;;;6269269;28;20551;-66
2023/01/14 07:37:24;;;;;;;6.63;6.00;;;3.80;99.90;;;;;;6271043;28;20791;-66
2023/01/14 07:40:28;;;;;;;8.27;7.43;;;3.90;99.90;;;;;;6268143;28;20473;-67
2023/01/14 07:43:33;;;;;;;8.17;7.30;;;3.90;99.90;;;;;;6268409;28;20785;-66
2023/01/14 07:46:36;;;;;;;10.70;8.17;;;4.00;99.90;;;;;;6269576;28;20582;-66
2023/01/14 07:49:40;;;;;;;9.37;6.13;;;4.00;99.90;;;;;;6268526;28;20472;-66
2023/01/14 07:52:43;;;;;;;4.40;4.00;;;4.10;99.90;;;;;;6271134;28;20462;-66
2023/01/14 07:55:47;;;;;;;7.23;5.50;;;4.10;99.90;;;;;;6269098;28;20469;-66
2023/01/14 07:58:52;;;;;;;6.97;4.73;;;4.20;99.90;;;;;;6263815;28;20900;-66
2023/01/14 08:01:55;;;;;;;4.67;4.20;;;4.20;99.90;;;;;;6263841;28;20466;-66
2023/01/14 08:04:59;;;;;;;8.23;5.70;;;4.20;99.90;;;;;;6265659;28;20908;-66
2023/01/14 08:08:03;;;;;;;6.97;6.17;;;4.30;99.90;;;;;;6263724;28;20566;-66
2023/01/14 08:11:06;;;;;;;7.20;5.57;;;4.20;99.90;;;;;;6266700;28;20867;-66
2023/01/14 08:14:11;;;;;;;5.50;4.70;;;4.30;99.90;;;;;;6255561;28;20459;-66
2023/01/14 08:17:14;;;;;;;7.20;5.70;;;4.30;99.90;;;;;;6265706;28;20439;-66
2023/01/14 08:20:22;;;;;;;7.63;6.17;;;4.30;99.90;;;;;;6263857;28;20485;-66
2023/01/14 08:23:25;;;;;;;5.90;5.30;;;4.40;99.90;;;;;;6266677;28;20474;-66
2023/01/14 08:26:28;;;;;;;7.50;6.07;;;4.40;99.90;;;;;;6269287;28;20804;-66
2023/01/14 08:29:33;;;;;;;8.93;6.67;;;4.50;99.90;;;;;;6269356;28;20478;-66
2023/01/14 08:32:37;;;;;;;9.80;5.37;;;4.60;99.90;;;;;;6268386;28;20466;-66
2023/01/14 08:35:40;;;;;;;6.33;5.67;;;4.70;99.90;;;;;;6266651;28;20473;-66
2023/01/14 08:38:46;;;;;;;7.43;5.90;;;4.80;99.90;;;;;;6265969;28;20463;-72
2023/01/14 08:41:49;;;;;;;7.33;5.00;;;4.90;99.90;;;;;;6263934;28;20930;-66
2023/01/14 08:44:55;;;;;;;8.53;5.60;;;5.00;99.90;;;;;;6265207;28;20957;-66
2023/01/14 08:47:58;;;;;;;8.37;5.43;;;5.10;99.90;;;;;;6264781;28;20489;-66
2023/01/14 08:51:03;;;;;;;6.27;5.23;;;5.10;99.90;;;;;;6264100;28;20494;-66
2023/01/14 08:54:06;;;;;;;8.60;6.67;;;5.20;99.90;;;;;;6266165;28;20472;-68
2023/01/14 08:57:10;;;;;;;8.30;5.20;;;5.30;99.90;;;;;;6266235;28;20462;-69
2023/01/14 09:00:16;;;;;;;7.90;5.93;;;5.40;99.90;;;;;;6266128;28;20471;-65
2023/01/14 09:03:19;;;;;;;10.67;6.33;;;5.50;99.90;;;;;;6264397;28;20473;-67
2023/01/14 09:06:23;;;;;;;6.40;5.80;;;5.60;99.90;;;;;;6266373;28;20471;-66
2023/01/14 09:19:37;;;;;;;8.37;7.47;;;6.00;99.90;;;;;;6260794;28;20958;-66
2023/01/14 09:22:41;;;;;;;9.73;6.87;;;6.10;99.90;;;;;;6264407;28;20471;-66
2023/01/14 09:25:44;;;;;;;7.57;6.13;;;6.20;99.90;;;;;;6270322;28;20466;-65
2023/01/14 09:28:48;;;;;;;7.50;5.70;;;6.30;99.90;;;;;;6264746;28;20482;-66
2023/01/14 09:31:53;;;;;;;7.30;6.57;;;6.40;99.90;;;;;;6267235;28;20481;-66
2023/01/14 09:34:56;;;;;;;11.33;5.87;;;6.40;99.90;;;;;;6263323;28;20471;-64
2023/01/14 09:38:00;;;;;;;7.23;6.50;;;6.60;99.90;;;;;;6267628;28;20486;-65
2023/01/14 09:41:04;;;;;;;7.37;6.13;;;6.60;99.90;;;;;;6268855;28;20482;-65
2023/01/14 09:44:13;;;;;;;7.13;5.60;;;6.80;99.90;;;;;;6270701;28;20537;-66
2023/01/14 09:47:22;;;;;;;6.20;5.70;;;6.90;99.90;;;;;;6262323;28;20446;-66
2023/01/14 09:50:35;;;;;;;6.40;5.60;;;7.00;99.90;;;;;;6270876;28;20471;-65
2023/01/14 09:53:53;;;;;;;7.97;6.47;;;7.10;99.90;;;;;;6254777;28;20982;-66
2023/01/14 09:57:04;;;;;;;6.90;6.23;;;7.20;99.90;;;;;;6256214;28;20479;-66
2023/01/14 10:00:29;;;;;;;9.03;6.47;;;7.30;99.90;;;;;;6260262;28;20813;-66
2023/01/14 10:03:42;;;;;;;6.20;4.70;;;7.40;99.90;;;;;;6263546;28;20481;-66
2023/01/14 10:06:49;;;;;;;6.90;5.23;;;7.50;99.90;;;;;;6262839;28;20541;-66
2023/01/14 10:09:55;;;;;;;6.63;5.33;;;7.60;99.90;;;;;;6260789;28;20475;-66
2023/01/14 10:13:03;;;;;;;5.70;4.73;;;7.70;99.90;;;;;;6264684;28;20891;-66
2023/01/14 10:16:11;;;;;;;8.20;5.00;;;7.70;99.50;;;;;;6263959;28;20817;-66
2023/01/14 10:19:21;;;;;;;10.20;5.30;;;7.90;99.50;;;;;;6274984;28;20478;-66
2023/01/14 10:22:34;;;;;;;6.10;5.00;;;7.90;99.30;;;;;;6275465;28;20542;-66
2023/01/14 10:25:39;;;;;;;5.50;4.63;;;8.00;99.00;;;;;;6282076;28;20507;-66
2023/01/14 10:28:44;;;;;;;7.53;6.10;;;8.20;98.10;;;;;;6299974;28;20485;-66
2023/01/14 10:31:53;;;;;;;6.13;5.40;;;8.30;98.20;;;;;;6280718;28;20474;-66
2023/01/14 10:34:58;;;;;;;8.03;5.53;;;8.40;98.40;;;;;;6275430;28;20496;-66
2023/01/14 10:38:02;;;;;;;8.90;6.87;;;8.60;98.40;;;;;;6275765;28;20488;-68
2023/01/14 10:41:11;;;;;;;7.53;6.60;;;8.70;98.30;;;;;;6274792;28;20466;-65
2023/01/14 10:44:30;;;;;;;7.73;6.17;;;8.80;98.10;;;;;;6275161;28;21163;-66
2023/01/14 10:47:35;;;;;;;7.67;5.93;;;8.90;97.80;;;;;;6275164;28;20477;-65
2023/01/14 10:50:40;;;;;;;7.63;6.70;;;9.10;97.20;;;;;;6274687;28;20957;-65
2023/01/14 10:53:44;;;;;;;9.00;6.57;;;9.20;96.10;;;;;;6274674;28;20474;-65
2023/01/14 10:56:50;;;;;;;7.33;5.00;;;9.30;95.70;;;;;;6274897;28;20469;-65
2023/01/14 10:59:55;;;;;;;7.07;6.43;;;9.40;95.10;;;;;;6274938;28;20474;-66
2023/01/14 11:03:00;;;;;;;10.87;7.57;;;9.50;95.30;;;;;;6275110;28;20786;-65
2023/01/14 11:06:08;;;;;;;7.30;6.60;;;9.70;95.60;;;;;;6274834;28;20466;-65
2023/01/14 11:09:18;;;;;;;6.37;5.00;;;9.90;94.80;;;;;;6274962;28;20474;-65
2023/01/14 11:12:29;;;;;;;6.00;4.83;;;10.20;92.90;;;;;;6274762;28;20477;-65
2023/01/14 11:15:38;;;;;;;9.50;4.80;;;10.40;92.30;;;;;;6275367;28;20493;-66
2023/01/14 11:18:50;;;;;;;6.17;5.43;;;10.60;91.80;;;;;;6275152;28;20782;-66
2023/01/14 11:21:57;;;;;;;5.63;4.97;;;11.40;91.20;;;;;;6274937;28;20560;-68
2023/01/14 11:25:00;;;;;;;5.60;5.03;;;15.40;87.10;;;;;;6276025;28;20973;-66
2023/01/14 11:28:06;;;;;;;4.93;4.00;;;20.70;61.80;;;;;;6299268;28;20460;-66
2023/01/14 11:31:10;;;;;;;6.70;4.37;;;23.50;41.90;;;;;;6287192;28;20233;-66
2023/01/14 11:34:27;;;;;;;7.67;5.13;;;25.00;35.80;;;;;;6279082;28;20227;-65
2023/01/14 11:37:38;;;;;;;7.50;5.43;;;23.90;32.50;;;;;;6278706;28;20676;-65
2023/01/14 11:44:04;;;;;;;5.13;4.63;;;24.40;33.10;;;;;;6279302;28;20212;-65
2023/01/14 11:47:15;;;;;;;6.23;5.40;;;27.00;29.90;;;;;;6280278;28;20203;-68
2023/01/14 11:50:21;;;;;;;5.40;4.90;;;29.70;26.60;;;;;;6278872;28;20242;-65
2023/01/14 11:53:41;;;;;;;5.10;4.33;;;31.20;23.70;;;;;;6278958;28;20651;-67
2023/01/14 11:56:45;;;;;;;4.80;4.00;;;30.80;23.00;;;;;;6281902;28;20227;-68
2023/01/14 11:59:51;;;;;;;4.50;4.10;;;32.90;21.10;;;;;;6281811;28;20245;-67
2023/01/14 12:02:59;;;;;;;7.65;6.95;;;33.60;20.00;;;;;;6281982;28;20235;-67
2023/01/14 12:06:08;;;;;;;7.78;3.95;;;33.90;19.40;;;;;;6282389;28;20235;-67
2023/01/14 12:09:21;;;;;;;3.83;3.47;;;35.10;18.20;;;;;;6282159;28;20265;-66
2023/01/14 12:12:29;;;;;;;3.38;3.08;;;35.80;16.60;;;;;;6282891;28;20308;-68
2023/01/14 12:19:08;;;;;;;4.60;3.22;;;36.20;15.90;;;;;;6283198;28;20242;-66
2023/01/14 12:22:16;;;;;;;3.42;2.90;;;37.30;15.00;;;;;;6283403;28;20238;-67
2023/01/14 12:25:25;;;;;;;3.13;2.05;;;37.50;13.60;;;;;;6285828;28;20230;-68
2023/01/14 12:28:30;;;;;;;3.75;2.50;;;37.90;13.60;;;;;;6303939;28;20540;-66
2023/01/14 12:31:38;;;;;;;3.10;2.45;;;37.10;13.00;;;;;;6276133;28;20285;-66
2023/01/14 12:34:45;;;;;;;4.53;2.72;;;37.90;13.60;;;;;;6278081;28;20310;-66
2023/01/14 12:37:52;;;;;;;3.97;2.75;;;37.40;13.60;;;;;;6278091;28;20235;-65
2023/01/14 12:47:48;;;;;;;3.00;2.25;;;37.70;12.80;;;;;;6277645;28;20673;-67
2023/01/14 12:50:54;;;;;;;2.92;2.50;;;38.10;12.80;;;;;;6267316;28;20228;-66
2023/01/14 12:54:00;;;;;;;3.30;2.17;;;38.60;12.50;;;;;;6267436;28;20674;-66
2023/01/14 12:57:07;;;;;;;3.10;2.63;;;38.80;12.00;;;;;;6276452;28;20633;-66
2023/01/14 13:00:18;;;;;;;3.20;2.28;;;37.10;12.50;;;;;;6275121;28;20662;-66
2023/01/14 13:03:27;;;;;;;2.65;2.45;;;36.60;12.80;;;;;;6277137;28;20231;-65
2023/01/14 13:06:34;;;;;;;2.75;1.92;;;36.20;13.10;;;;;;6277398;28;20253;-65
2023/01/14 13:09:45;;;;;;;2.85;2.17;;;35.40;12.80;;;;;;6276885;28;20243;-67
2023/01/14 13:12:50;;;;;;;3.50;1.70;;;34.00;13.80;;;;;;6267461;28;20228;-67
2023/01/14 13:16:02;;;;;;;2.47;1.90;;;34.00;13.90;;;;;;6256641;28;20285;-66
2023/01/14 13:19:06;;;;;;;3.13;1.90;;;34.50;13.80;;;;;;6252045;28;20238;-66
2023/01/14 13:22:10;;;;;;;3.25;2.05;;;34.50;13.10;;;;;;6251819;28;20227;-67
2023/01/14 13:25:35;;;;;;;3.97;2.05;;;33.80;14.00;;;;;;6251828;28;20730;-67
2023/01/14 13:29:07;;;;;;;3.28;2.08;;;33.20;14.10;;;;;;6251841;28;20231;-67
2023/01/14 13:32:50;;;;;;;2.90;2.10;;;32.10;14.20;;;;;;6272099;28;20226;-65
2023/01/14 13:36:19;;;;;;;2.77;1.70;;;31.10;15.20;;;;;;6253745;28;20223;-65
2023/01/14 13:39:24;;;;;;;2.83;1.50;;;30.70;15.70;;;;;;6253346;28;20235;-64
2023/01/14 13:42:31;;;;;;;5.60;2.13;;;30.60;15.60;;;;;;6252810;28;20291;-67
2023/01/14 13:45:38;;;;;;;2.27;1.50;;;30.50;15.50;;;;;;6256025;28;20224;-65
2023/01/14 13:48:49;;;;;;;1.80;1.60;;;30.10;15.90;;;;;;6262693;28;20323;-66
2023/01/14 13:51:59;;;;;;;2.43;1.80;;;29.80;16.20;;;;;;6267456;28;20259;-66
2023/01/14 13:55:08;;;;;;;2.00;1.30;;;29.10;16.60;;;;;;6262156;28;20234;-66
2023/01/14 13:58:22;;;;;;;2.80;1.60;;;28.30;17.00;;;;;;6262489;28;20224;-66
2023/01/14 14:01:45;;;;;;;1.90;1.30;;;27.50;17.70;;;;;;6259436;28;20234;-65
2023/01/14 14:05:14;;;;;;;2.90;1.67;;;26.30;18.00;;;;;;6264089;28;20301;-65
2023/01/14 14:08:26;;;;;;;1.90;1.47;;;24.70;19.80;;;;;;6261624;28;20220;-66
2023/01/14 14:11:34;;;;;;;2.70;1.80;;;24.10;20.30;;;;;;6264188;28;20745;-66
2023/01/14 14:14:42;;;;;;;2.30;1.63;;;23.80;20.80;;;;;;6253178;28;20223;-69
2023/01/14 14:17:53;;;;;;;2.50;2.00;;;23.50;20.90;;;;;;6250551;28;20240;-65
2023/01/14 14:20:58;;;;;;;3.17;1.57;;;23.20;21.30;;;;;;6256843;28;20227;-65
2023/01/14 14:24:07;;;;;;;2.67;2.00;;;22.70;21.80;;;;;;6266363;28;20227;-65
2023/01/14 14:27:15;;;;;;;3.70;2.27;;;21.40;22.50;;;;;;6294579;28;20222;-64
2023/01/14 14:30:23;;;;;;;2.90;2.00;;;20.20;23.60;;;;;;6299868;28;20223;-64
2023/01/14 14:33:40;;;;;;;3.10;2.10;;;19.00;24.80;;;;;;6297598;28;20234;-64
2023/01/14 14:36:48;;;;;;;2.10;1.90;;;17.80;26.20;;;;;;6270935;28;20243;-64
2023/01/14 14:39:53;;;;;;;4.50;2.20;;;16.50;27.80;;;;;;6274534;28;20926;-64
2023/01/14 14:42:58;;;;;;;2.67;1.80;;;15.80;29.00;;;;;;6275123;28;20795;-65
2023/01/14 14:46:04;;;;;;;3.10;2.47;;;15.30;29.90;;;;;;6274631;28;20469;-65
2023/01/14 14:49:30;;;;;;;2.17;1.80;;;15.00;31.20;;;;;;6274745;28;20482;-66
2023/01/14 14:52:38;;;;;;;2.43;2.17;;;14.50;32.00;;;;;;6272364;28;20467;-65
2023/01/14 14:55:50;;;;;;;2.20;2.00;;;14.00;33.10;;;;;;6275799;28;20466;-65
2023/01/14 14:58:56;;;;;;;3.63;2.40;;;13.80;33.80;;;;;;6274891;28;20477;-65
2023/01/14 15:02:03;;;;;;;2.70;2.13;;;13.50;34.60;;;;;;6273906;28;20489;-64
2023/01/14 15:05:15;;;;;;;4.17;2.67;;;13.30;35.20;;;;;;6273371;28;20502;-63
2023/01/14 15:08:24;;;;;;;3.17;2.40;;;13.10;36.00;;;;;;6272828;28;20796;-63
2023/01/14 15:11:31;;;;;;;4.80;2.97;;;13.00;36.70;;;;;;6253822;28;20801;-63
2023/01/14 15:14:35;;;;;;;4.47;3.00;;;12.70;37.70;;;;;;6254542;28;20549;-64
2023/01/14 15:17:38;;;;;;;3.63;3.30;;;12.50;38.70;;;;;;6252456;28;20509;-63
2023/01/14 15:20:46;;;;;;;5.70;4.57;;;12.30;39.70;;;;;;6251880;28;20489;-64
2023/01/14 15:23:52;;;;;;;7.23;4.30;;;12.10;40.70;;;;;;6252757;28;20815;-64
2023/01/14 15:26:59;;;;;;;5.37;4.00;;;11.90;41.40;;;;;;6288049;28;20472;-64
2023/01/14 15:30:25;;;;;;;5.03;3.60;;;11.90;42.00;;;;;;6302355;28;20992;-65
2023/01/14 15:33:31;;;;;;;5.73;3.20;;;11.60;42.80;;;;;;6303724;28;20510;-65
2023/01/14 15:36:39;;;;;;;5.03;3.30;;;11.50;43.20;;;;;;6303888;28;20483;-64
2023/01/14 15:39:44;;;;;;;6.33;3.40;;;11.40;43.60;;;;;;6303287;28;20480;-65
2023/01/14 15:42:48;;;;;;;4.37;3.93;;;11.30;44.10;;;;;;6298740;28;20573;-64
2023/01/14 15:45:53;;;;;;;5.90;4.00;;;11.20;44.40;;;;;;6303481;28;20564;-65
2023/01/14 15:49:00;;;;;;;5.10;3.60;;;11.10;44.60;;;;;;6303070;28;20499;-64
2023/01/14 15:52:06;;;;;;;5.20;3.80;;;11.00;45.20;;;;;;6303423;28;20881;-65
2023/01/14 15:55:21;;;;;;;5.50;4.40;;;10.90;45.50;;;;;;6303727;28;20829;-64
2023/01/14 15:58:28;;;;;;;5.10;4.60;;;10.80;45.70;;;;;;6302489;28;20482;-65
2023/01/14 16:01:32;;;;;;;8.33;5.50;;;10.70;46.40;;;;;;6282477;28;20478;-64
2023/01/14 16:04:36;;;;;;;6.63;4.70;;;10.50;46.50;;;;;;6278453;28;20481;-64
2023/01/14 16:07:41;;;;;;;9.47;7.30;;;10.50;47.30;;;;;;6278285;28;20494;-64
2023/01/14 16:10:45;;;;;;;12.40;9.63;;;10.40;48.00;;;;;;6278797;28;20512;-64
2023/01/14 16:13:49;;;;;;;16.23;10.60;;;10.30;48.70;;;;;;6278193;28;20473;-64
2023/01/14 16:16:52;;;;;;;14.50;9.70;;;10.20;48.90;;;;;;6277471;28;20478;-63
2023/01/14 16:19:57;;;;;;;15.50;8.97;;;10.10;49.10;;;;;;6277838;28;20492;-64
2023/01/14 16:23:02;;;;;;;14.33;8.90;;;9.90;50.50;;;;;;6278188;28;20501;-64
2023/01/14 16:26:06;;;;;;;19.60;11.73;;;9.80;51.00;;;;;;6289321;28;20441;-64
2023/01/14 16:29:11;;;;;;;12.93;9.27;;;9.70;51.40;;;;;;6303062;28;20461;-65
2023/01/14 16:32:14;;;;;;;13.10;8.57;;;9.60;51.90;;;;;;6302857;28;20540;-64
2023/01/14 16:35:19;;;;;;;13.00;8.83;;;9.50;52.30;;;;;;6303535;28;20441;-64
2023/01/14 16:38:24;;;;;;;14.60;10.60;;;9.40;52.80;;;;;;6298006;28;20552;-64
2023/01/14 16:41:27;;;;;;;11.40;10.20;;;9.40;53.20;;;;;;6303388;28;20457;-64
2023/01/14 16:44:30;;;;;;;16.17;9.90;;;9.20;53.60;;;;;;6303470;28;20473;-64
2023/01/14 16:47:34;;;;;;;11.20;8.60;;;9.20;54.50;;;;;;6302728;28;20473;-63
2023/01/14 16:50:37;;;;;;;16.27;9.13;;;9.10;54.60;;;;;;6301840;28;20496;-62
2023/01/14 16:53:42;;;;;;;17.50;10.17;;;9.00;55.20;;;;;;6302325;28;20465;-63
2023/01/14 16:56:45;;;;;;;14.00;9.40;;;8.90;55.80;;;;;;6302964;28;20885;-63
2023/01/14 16:59:49;;;;;;;13.93;9.77;;;8.80;56.50;;;;;;6302019;28;20488;-65
2023/01/14 17:02:53;;;;;;;13.90;9.20;;;8.70;57.10;;;;;;6281304;28;20567;-64